Time;durP1;ratioP1;P1;durP2;ratioP2;P2;SDS_P1;SDS_P2;PMS_P1;PMS_P2;Temp;Humidity;BMP_temperature;BMP_pressure;BME280_temperature;BME280_humidity;BME280_pressure;Samples;Min_cycle;Max_cycle;Signal;HPM_P1;HPM_P2
2023/07/24 00:00:51;;;;;;;14.93;6.57;;;;;;;;;;5056756;28;20439;-74
2023/07/24 00:03:17;;;;;;;11.73;6.53;;;;;;;;;;5067139;28;20119;-74
2023/07/24 00:05:43;;;;;;;12.60;6.22;;;;;;;;;;5074452;28;20040;-74
2023/07/24 00:08:09;;;;;;;12.20;6.25;;;;;;;;;;5061271;28;20060;-74
2023/07/24 00:10:35;;;;;;;11.27;6.43;;;;;;;;;;5052853;28;20049;-75
2023/07/24 00:13:03;;;;;;;12.07;6.28;;;;;;;;;;5061838;28;20483;-74
2023/07/24 00:15:29;;;;;;;14.82;7.07;;;;;;;;;;5052676;28;20057;-75
2023/07/24 00:17:55;;;;;;;10.07;5.55;;;;;;;;;;5052485;28;20045;-75
2023/07/24 00:20:21;;;;;;;12.35;6.45;;;;;;;;;;5054256;28;20045;-75
2023/07/24 00:22:47;;;;;;;12.90;6.15;;;;;;;;;;5053693;28;20137;-75
2023/07/24 00:25:13;;;;;;;11.85;5.72;;;;;;;;;;5052243;28;20041;-75
2023/07/24 00:27:39;;;;;;;12.85;5.50;;;;;;;;;;5066871;28;20531;-75
2023/07/24 00:30:05;;;;;;;12.43;6.38;;;;;;;;;;5053791;28;20079;-75
2023/07/24 00:32:32;;;;;;;18.75;6.45;;;;;;;;;;5061825;28;20095;-75
2023/07/24 00:34:58;;;;;;;13.18;5.50;;;;;;;;;;5063975;28;20048;-75
2023/07/24 00:37:24;;;;;;;11.15;5.53;;;;;;;;;;5069880;28;20095;-75
2023/07/24 00:39:50;;;;;;;12.23;5.35;;;;;;;;;;5071895;28;20086;-75
2023/07/24 00:42:16;;;;;;;12.00;6.45;;;;;;;;;;5071231;28;20071;-75
2023/07/24 00:44:42;;;;;;;13.50;5.45;;;;;;;;;;5067396;28;20048;-75
2023/07/24 00:47:09;;;;;;;10.73;5.75;;;;;;;;;;5057321;28;20094;-75
2023/07/24 00:49:35;;;;;;;14.63;5.50;;;;;;;;;;5064646;28;20530;-75
2023/07/24 00:52:01;;;;;;;10.70;6.10;;;;;;;;;;5054331;28;20047;-75
2023/07/24 00:54:28;;;;;;;10.02;5.30;;;;;;;;;;5066155;28;21002;-75
2023/07/24 00:56:54;;;;;;;11.63;6.22;;;;;;;;;;5060300;28;20051;-75
2023/07/24 00:59:21;;;;;;;13.82;6.20;;;;;;;;;;5059692;28;20090;-75
2023/07/24 01:01:48;;;;;;;8.85;5.40;;;;;;;;;;5057857;28;20044;-75
2023/07/24 01:04:14;;;;;;;11.48;6.00;;;;;;;;;;5058201;28;20041;-75
2023/07/24 01:06:40;;;;;;;10.93;5.45;;;;;;;;;;5063488;28;20048;-75
2023/07/24 01:09:06;;;;;;;16.60;5.63;;;;;;;;;;5073585;28;20101;-75
2023/07/24 01:11:44;;;;;;;12.80;5.88;;;;;;;;;;5071907;28;20080;-75
2023/07/24 01:14:14;;;;;;;10.73;5.57;;;;;;;;;;5066405;28;20076;-75
2023/07/24 01:16:44;;;;;;;11.70;5.65;;;;;;;;;;5062062;28;20387;-75
2023/07/24 01:19:20;;;;;;;11.98;5.70;;;;;;;;;;5072715;28;20099;-75
2023/07/24 01:21:59;;;;;;;10.32;5.20;;;;;;;;;;5072975;28;20045;-75
2023/07/24 01:24:31;;;;;;;10.07;5.47;;;;;;;;;;5073401;28;20049;-75
2023/07/24 01:26:57;;;;;;;14.27;5.70;;;;;;;;;;5054650;28;20044;-75
2023/07/24 01:29:23;;;;;;;10.32;5.47;;;;;;;;;;5064724;28;20045;-75
2023/07/24 01:31:49;;;;;;;11.45;5.50;;;;;;;;;;5067551;28;20044;-75
2023/07/24 01:34:15;;;;;;;10.73;5.60;;;;;;;;;;5066407;28;20103;-75
2023/07/24 01:36:41;;;;;;;9.73;5.47;;;;;;;;;;5053187;28;20060;-75
2023/07/24 01:39:07;;;;;;;11.20;5.25;;;;;;;;;;5052650;28;20045;-75
2023/07/24 01:41:33;;;;;;;11.30;5.25;;;;;;;;;;5055516;28;20083;-75
2023/07/24 01:44:00;;;;;;;12.13;5.93;;;;;;;;;;5059105;28;20049;-75
2023/07/24 01:46:26;;;;;;;9.98;5.25;;;;;;;;;;5066466;28;20041;-75
2023/07/24 01:48:52;;;;;;;10.23;5.85;;;;;;;;;;5056023;28;20063;-75
2023/07/24 01:51:18;;;;;;;11.98;5.45;;;;;;;;;;5076962;28;20044;-75
2023/07/24 01:53:44;;;;;;;12.57;5.47;;;;;;;;;;5074685;28;20441;-75
2023/07/24 01:56:10;;;;;;;10.85;5.60;;;;;;;;;;5061656;28;20116;-75
2023/07/24 01:58:36;;;;;;;15.55;5.85;;;;;;;;;;5056422;28;20041;-75
2023/07/24 02:01:02;;;;;;;12.65;6.10;;;;;;;;;;5056517;28;20071;-75
2023/07/24 02:03:28;;;;;;;13.27;6.28;;;;;;;;;;5071101;28;20221;-75
2023/07/24 02:05:54;;;;;;;13.30;5.90;;;;;;;;;;5055372;28;20422;-75
2023/07/24 02:08:20;;;;;;;11.98;6.13;;;;;;;;;;5057163;28;20040;-75
2023/07/24 02:10:50;;;;;;;9.15;5.88;;;;;;;;;;5067737;28;20049;-75
2023/07/24 02:13:16;;;;;;;10.95;6.28;;;;;;;;;;5058800;28;20049;-75
2023/07/24 02:15:42;;;;;;;12.38;6.70;;;;;;;;;;5067365;28;20125;-75
2023/07/24 02:18:08;;;;;;;17.10;6.80;;;;;;;;;;5057514;28;20048;-75
2023/07/24 02:20:34;;;;;;;15.43;6.97;;;;;;;;;;5056840;28;20411;-75
2023/07/24 02:23:00;;;;;;;12.02;6.65;;;;;;;;;;5060101;28;20086;-75
2023/07/24 02:25:26;;;;;;;22.20;7.15;;;;;;;;;;5073126;28;20043;-75
2023/07/24 02:27:52;;;;;;;13.65;6.57;;;;;;;;;;5074028;28;20036;-75
2023/07/24 02:30:18;;;;;;;14.98;7.45;;;;;;;;;;5072342;28;20126;-75
2023/07/24 02:32:44;;;;;;;13.38;7.45;;;;;;;;;;5065764;28;20037;-75
2023/07/24 02:35:11;;;;;;;15.68;7.15;;;;;;;;;;5069221;28;20390;-75
2023/07/24 02:37:37;;;;;;;14.85;8.18;;;;;;;;;;5067879;28;20053;-75
2023/07/24 02:40:03;;;;;;;14.38;8.00;;;;;;;;;;5057231;28;20045;-75
2023/07/24 02:42:29;;;;;;;14.90;8.05;;;;;;;;;;5058884;28;20049;-75
2023/07/24 02:44:55;;;;;;;19.75;8.35;;;;;;;;;;5055092;28;20483;-75
2023/07/24 02:47:21;;;;;;;15.63;7.38;;;;;;;;;;5061500;28;20048;-75
2023/07/24 02:49:47;;;;;;;15.00;8.05;;;;;;;;;;5059064;28;20047;-75
2023/07/24 02:52:14;;;;;;;21.08;8.50;;;;;;;;;;5053856;28;20088;-75
2023/07/24 02:54:40;;;;;;;15.32;7.43;;;;;;;;;;5072123;28;20041;-75
2023/07/24 02:57:06;;;;;;;19.20;8.00;;;;;;;;;;5065713;28;20052;-75
2023/07/24 02:59:32;;;;;;;15.55;8.00;;;;;;;;;;5054231;28;20041;-75
2023/07/24 03:01:59;;;;;;;15.68;8.02;;;;;;;;;;5058503;28;20047;-75
2023/07/24 03:04:25;;;;;;;13.77;7.32;;;;;;;;;;5074346;28;20051;-75
2023/07/24 03:06:51;;;;;;;16.17;8.15;;;;;;;;;;5075327;28;20040;-75
2023/07/24 03:09:17;;;;;;;17.85;8.30;;;;;;;;;;5070947;28;20044;-75
2023/07/24 03:11:43;;;;;;;12.27;6.90;;;;;;;;;;5064615;28;20041;-75
2023/07/24 03:14:10;;;;;;;16.80;7.70;;;;;;;;;;5067321;28;20040;-75
2023/07/24 03:16:36;;;;;;;15.88;7.32;;;;;;;;;;5069623;28;20105;-75
2023/07/24 03:19:02;;;;;;;17.25;7.75;;;;;;;;;;5073911;28;20391;-74
2023/07/24 03:21:28;;;;;;;16.15;7.82;;;;;;;;;;5073407;28;20036;-75
2023/07/24 03:23:54;;;;;;;14.52;8.05;;;;;;;;;;5074988;28;20109;-75
2023/07/24 03:26:20;;;;;;;20.17;8.63;;;;;;;;;;5073903;28;20044;-74
2023/07/24 03:28:46;;;;;;;14.77;7.40;;;;;;;;;;5075009;28;20049;-74
2023/07/24 03:31:13;;;;;;;14.63;7.10;;;;;;;;;;5075300;28;20044;-74
2023/07/24 03:33:39;;;;;;;15.07;7.78;;;;;;;;;;5074908;28;20084;-74
2023/07/24 03:36:05;;;;;;;12.85;7.35;;;;;;;;;;5073338;28;20044;-74
2023/07/24 03:38:31;;;;;;;11.85;7.53;;;;;;;;;;5075086;28;20045;-74
2023/07/24 03:40:57;;;;;;;13.23;7.57;;;;;;;;;;5066110;28;20037;-74
2023/07/24 03:43:23;;;;;;;14.38;7.47;;;;;;;;;;5063875;28;20528;-74
2023/07/24 03:45:50;;;;;;;13.55;7.20;;;;;;;;;;5073285;28;20127;-74
2023/07/24 03:48:16;;;;;;;19.23;7.30;;;;;;;;;;5064721;28;20048;-74
2023/07/24 03:50:42;;;;;;;19.60;8.02;;;;;;;;;;5065221;28;20069;-74
2023/07/24 03:53:08;;;;;;;16.27;8.00;;;;;;;;;;5053222;28;20056;-74
2023/07/24 03:55:34;;;;;;;15.23;7.47;;;;;;;;;;5053552;28;20091;-74
2023/07/24 03:58:00;;;;;;;16.17;7.80;;;;;;;;;;5058293;28;20043;-74
2023/07/24 04:00:26;;;;;;;16.73;8.35;;;;;;;;;;5055079;28;20041;-75
2023/07/24 04:02:52;;;;;;;15.35;7.50;;;;;;;;;;5055392;28;20094;-74
2023/07/24 04:05:18;;;;;;;18.65;8.30;;;;;;;;;;5054671;28;20079;-74
2023/07/24 04:07:45;;;;;;;12.68;6.95;;;;;;;;;;5068773;28;20091;-75
2023/07/24 04:10:11;;;;;;;13.27;7.90;;;;;;;;;;5055281;28;20510;-75
2023/07/24 04:12:37;;;;;;;13.48;7.53;;;;;;;;;;5067803;28;20052;-75
2023/07/24 04:15:03;;;;;;;16.25;7.47;;;;;;;;;;5074103;28;20502;-75
2023/07/24 04:17:29;;;;;;;13.40;6.65;;;;;;;;;;5073124;28;20116;-75
2023/07/24 04:19:55;;;;;;;16.65;7.15;;;;;;;;;;5069423;28;20045;-75
2023/07/24 04:22:21;;;;;;;15.00;7.47;;;;;;;;;;5071271;28;20054;-75
2023/07/24 04:24:47;;;;;;;18.00;6.93;;;;;;;;;;5059013;28;20494;-75
2023/07/24 04:27:13;;;;;;;14.00;7.05;;;;;;;;;;5057611;28;20087;-75
2023/07/24 04:29:39;;;;;;;12.02;6.78;;;;;;;;;;5061009;28;20376;-75
2023/07/24 04:32:06;;;;;;;17.73;7.70;;;;;;;;;;5072245;28;20044;-75
2023/07/24 04:34:33;;;;;;;15.82;7.57;;;;;;;;;;5071497;28;20068;-75
2023/07/24 04:36:59;;;;;;;13.00;6.82;;;;;;;;;;5056797;28;20064;-75
2023/07/24 04:39:25;;;;;;;16.77;7.22;;;;;;;;;;5051973;28;20122;-75
2023/07/24 04:41:51;;;;;;;12.15;6.78;;;;;;;;;;5052290;28;20531;-75
2023/07/24 04:44:17;;;;;;;13.32;6.60;;;;;;;;;;5053669;28;20499;-75
2023/07/24 04:46:43;;;;;;;10.73;5.78;;;;;;;;;;5051799;28;20124;-75
2023/07/24 04:49:09;;;;;;;15.73;6.65;;;;;;;;;;5051937;28;20080;-75
2023/07/24 04:51:35;;;;;;;14.40;6.13;;;;;;;;;;5061633;28;20459;-75
2023/07/24 04:54:01;;;;;;;13.05;6.25;;;;;;;;;;5073491;28;20048;-75
2023/07/24 04:56:27;;;;;;;12.23;6.35;;;;;;;;;;5070356;28;20052;-75
2023/07/24 04:58:53;;;;;;;12.25;6.55;;;;;;;;;;5061409;28;20044;-75
2023/07/24 05:01:19;;;;;;;13.18;6.65;;;;;;;;;;5066974;28;20167;-75
2023/07/24 05:03:45;;;;;;;15.75;6.32;;;;;;;;;;5069317;28;20040;-75
2023/07/24 05:06:11;;;;;;;13.80;5.72;;;;;;;;;;5071229;28;20411;-75
2023/07/24 05:08:37;;;;;;;14.65;5.80;;;;;;;;;;5071938;28;20190;-75
2023/07/24 05:11:03;;;;;;;12.40;6.13;;;;;;;;;;5071817;28;20044;-75
2023/07/24 05:13:30;;;;;;;13.90;6.60;;;;;;;;;;5071602;28;20128;-75
2023/07/24 05:15:56;;;;;;;15.10;6.60;;;;;;;;;;5061230;28;20071;-75
2023/07/24 05:18:22;;;;;;;17.17;6.38;;;;;;;;;;5059297;28;20055;-75
2023/07/24 05:20:51;;;;;;;12.27;6.45;;;;;;;;;;5076735;28;20566;-75
2023/07/24 05:23:17;;;;;;;14.48;6.85;;;;;;;;;;5075319;28;20059;-75
2023/07/24 05:25:43;;;;;;;10.32;5.43;;;;;;;;;;5076743;28;20494;-75
2023/07/24 05:28:09;;;;;;;11.68;5.70;;;;;;;;;;5076300;28;20567;-75
2023/07/24 05:30:35;;;;;;;13.18;6.40;;;;;;;;;;5072970;28;20487;-75
2023/07/24 05:33:01;;;;;;;15.40;5.90;;;;;;;;;;5062177;28;20549;-75
2023/07/24 05:35:27;;;;;;;18.45;6.43;;;;;;;;;;5069146;28;20052;-75
2023/07/24 05:37:54;;;;;;;12.18;6.30;;;;;;;;;;5075579;28;20052;-75
2023/07/24 05:40:20;;;;;;;13.15;6.20;;;;;;;;;;5076810;28;20420;-75
2023/07/24 05:42:47;;;;;;;16.08;6.40;;;;;;;;;;5075139;28;20537;-75
2023/07/24 05:45:14;;;;;;;17.48;6.35;;;;;;;;;;5070838;28;20495;-75
2023/07/24 05:47:40;;;;;;;15.45;6.28;;;;;;;;;;5056539;28;20040;-75
2023/07/24 05:50:07;;;;;;;12.35;6.25;;;;;;;;;;5068309;28;20045;-75
2023/07/24 05:52:33;;;;;;;14.68;5.88;;;;;;;;;;5066685;28;20033;-79
2023/07/24 05:54:59;;;;;;;13.68;5.95;;;;;;;;;;5055667;28;20049;-75
2023/07/24 05:57:25;;;;;;;13.85;5.85;;;;;;;;;;5057672;28;20068;-75
2023/07/24 05:59:52;;;;;;;11.32;5.35;;;;;;;;;;5058501;28;20051;-75
2023/07/24 06:02:18;;;;;;;12.43;5.90;;;;;;;;;;5062649;28;20040;-75
2023/07/24 06:04:44;;;;;;;14.25;6.40;;;;;;;;;;5058025;28;20041;-75
2023/07/24 06:07:10;;;;;;;12.02;6.05;;;;;;;;;;5056369;28;20053;-75
2023/07/24 06:09:36;;;;;;;10.05;5.95;;;;;;;;;;5056703;28;20497;-75
2023/07/24 06:12:02;;;;;;;18.05;6.53;;;;;;;;;;5072905;28;20102;-75
2023/07/24 06:14:28;;;;;;;15.23;6.10;;;;;;;;;;5069038;28;20075;-76
2023/07/24 06:16:54;;;;;;;13.45;5.40;;;;;;;;;;5075670;28;20083;-75
2023/07/24 06:19:21;;;;;;;14.30;6.00;;;;;;;;;;5068427;28;20044;-75
2023/07/24 06:21:47;;;;;;;13.52;6.30;;;;;;;;;;5054236;28;20044;-75
2023/07/24 06:24:13;;;;;;;13.40;6.22;;;;;;;;;;5061341;28;20041;-75
2023/07/24 06:26:39;;;;;;;12.40;6.05;;;;;;;;;;5054512;28;20049;-75
2023/07/24 06:29:05;;;;;;;13.95;6.45;;;;;;;;;;5061741;28;20559;-76
2023/07/24 06:31:32;;;;;;;11.13;5.70;;;;;;;;;;5064912;28;20040;-75
2023/07/24 06:33:58;;;;;;;14.13;6.22;;;;;;;;;;5074498;28;20044;-75
2023/07/24 06:36:24;;;;;;;10.90;6.18;;;;;;;;;;5063906;28;20072;-76
2023/07/24 06:38:50;;;;;;;11.80;5.88;;;;;;;;;;5087820;28;20052;-77
2023/07/24 06:41:16;;;;;;;12.75;5.80;;;;;;;;;;5066264;28;20428;-75
2023/07/24 06:43:42;;;;;;;13.82;6.22;;;;;;;;;;5064695;28;20048;-75
2023/07/24 06:46:08;;;;;;;19.17;6.75;;;;;;;;;;5062810;28;20041;-75
2023/07/24 06:48:35;;;;;;;10.18;6.13;;;;;;;;;;5070045;28;20040;-75
2023/07/24 06:51:01;;;;;;;17.48;6.88;;;;;;;;;;5066731;28;20118;-75
2023/07/24 06:53:27;;;;;;;17.73;6.50;;;;;;;;;;5064307;28;20052;-75
2023/07/24 06:55:53;;;;;;;13.52;5.75;;;;;;;;;;5075737;28;20052;-76
2023/07/24 06:58:19;;;;;;;11.43;6.18;;;;;;;;;;5069262;28;20051;-76
2023/07/24 07:00:45;;;;;;;15.98;6.47;;;;;;;;;;5077081;28;20049;-76
2023/07/24 07:03:11;;;;;;;12.20;6.50;;;;;;;;;;5070581;28;20071;-76
2023/07/24 07:05:37;;;;;;;17.20;7.13;;;;;;;;;;5056861;28;20041;-75
2023/07/24 07:08:03;;;;;;;11.13;5.63;;;;;;;;;;5066421;28;20049;-75
2023/07/24 07:10:31;;;;;;;15.70;6.10;;;;;;;;;;5061171;28;20052;-75
2023/07/24 07:12:57;;;;;;;10.57;6.22;;;;;;;;;;5055681;28;20040;-75
2023/07/24 07:15:23;;;;;;;13.80;6.32;;;;;;;;;;5072268;28;20037;-75
2023/07/24 07:17:49;;;;;;;13.55;6.07;;;;;;;;;;5074504;28;20163;-75
2023/07/24 07:20:15;;;;;;;15.07;6.95;;;;;;;;;;5074686;28;20037;-77
2023/07/24 07:22:41;;;;;;;13.80;6.38;;;;;;;;;;5053388;28;20079;-80
2023/07/24 07:25:08;;;;;;;12.45;6.32;;;;;;;;;;5065432;28;20051;-79
2023/07/24 07:27:34;;;;;;;13.18;5.68;;;;;;;;;;5059896;28;20052;-78
2023/07/24 07:30:00;;;;;;;13.48;6.50;;;;;;;;;;5044005;28;20617;-80
2023/07/24 07:32:27;;;;;;;11.27;6.25;;;;;;;;;;5071781;28;20052;-75
2023/07/24 07:34:53;;;;;;;13.98;6.93;;;;;;;;;;5068396;28;20106;-75
2023/07/24 07:37:19;;;;;;;12.85;6.07;;;;;;;;;;5057973;28;20053;-77
2023/07/24 07:39:45;;;;;;;15.82;7.30;;;;;;;;;;5067760;28;20488;-74
2023/07/24 07:42:11;;;;;;;18.52;6.60;;;;;;;;;;5054418;28;20135;-79
2023/07/24 07:44:37;;;;;;;11.05;6.55;;;;;;;;;;5052906;28;20080;-75
2023/07/24 07:47:03;;;;;;;16.50;6.15;;;;;;;;;;5055142;28;20049;-75
2023/07/24 07:49:29;;;;;;;14.35;7.25;;;;;;;;;;5059975;28;20047;-76
2023/07/24 07:51:56;;;;;;;15.30;6.20;;;;;;;;;;5074894;28;20040;-80
2023/07/24 07:54:22;;;;;;;12.63;6.40;;;;;;;;;;5075780;28;20048;-79
2023/07/24 07:56:48;;;;;;;14.85;7.45;;;;;;;;;;5057876;28;20076;-76
2023/07/24 07:59:14;;;;;;;13.32;6.25;;;;;;;;;;5053261;28;20045;-76
2023/07/24 08:01:40;;;;;;;12.13;5.90;;;;;;;;;;5063511;28;20040;-79
2023/07/24 08:04:06;;;;;;;45.08;15.02;;;;;;;;;;5053559;28;20049;-76
2023/07/24 08:06:32;;;;;;;12.05;5.63;;;;;;;;;;5057491;28;20045;-76
2023/07/24 08:08:58;;;;;;;14.35;6.32;;;;;;;;;;5057582;28;20041;-75
2023/07/24 08:11:24;;;;;;;36.47;11.77;;;;;;;;;;5057158;28;20076;-75
2023/07/24 08:13:50;;;;;;;13.18;7.25;;;;;;;;;;5072012;28;20494;-75
2023/07/24 08:16:18;;;;;;;12.55;5.85;;;;;;;;;;5073012;28;20461;-75
2023/07/24 08:18:45;;;;;;;11.05;5.95;;;;;;;;;;5054465;28;20048;-75
2023/07/24 08:21:11;;;;;;;13.43;6.25;;;;;;;;;;5056120;28;20040;-75
2023/07/24 08:23:37;;;;;;;12.43;6.40;;;;;;;;;;5061861;28;20045;-75
2023/07/24 08:26:03;;;;;;;16.60;7.05;;;;;;;;;;5071795;28;20056;-75
2023/07/24 08:28:29;;;;;;;11.18;6.97;;;;;;;;;;5067026;28;20467;-75
2023/07/24 08:30:59;;;;;;;13.68;6.13;;;;;;;;;;5066734;28;20045;-75
2023/07/24 08:33:25;;;;;;;11.75;5.75;;;;;;;;;;5067571;28;20472;-75
2023/07/24 08:35:59;;;;;;;12.07;6.22;;;;;;;;;;5062302;28;20053;-76
2023/07/24 08:38:25;;;;;;;12.88;5.93;;;;;;;;;;5069549;28;20049;-75
2023/07/24 08:41:00;;;;;;;8.82;5.60;;;;;;;;;;5059101;28;20040;-75
2023/07/24 08:43:26;;;;;;;11.63;5.85;;;;;;;;;;5070094;28;20131;-75
2023/07/24 08:45:53;;;;;;;16.40;6.43;;;;;;;;;;5066393;28;20147;-75
2023/07/24 08:48:19;;;;;;;9.45;6.05;;;;;;;;;;5057119;28;20044;-75
2023/07/24 08:50:46;;;;;;;20.35;7.38;;;;;;;;;;5062916;28;20033;-74
2023/07/24 08:53:13;;;;;;;12.13;6.05;;;;;;;;;;5069544;28;20041;-74
2023/07/24 08:55:39;;;;;;;12.98;6.90;;;;;;;;;;5063721;28;20055;-73
2023/07/24 08:58:06;;;;;;;11.43;6.65;;;;;;;;;;5072114;28;20166;-73
2023/07/24 09:00:33;;;;;;;17.48;7.35;;;;;;;;;;5072735;28;20056;-73
2023/07/24 09:02:59;;;;;;;10.50;6.80;;;;;;;;;;5064467;28;20406;-73
2023/07/24 09:05:25;;;;;;;11.00;7.43;;;;;;;;;;5073260;28;20052;-74
2023/07/24 09:07:51;;;;;;;8.88;7.25;;;;;;;;;;5061164;28;20047;-75
2023/07/24 09:10:17;;;;;;;11.38;6.90;;;;;;;;;;5072059;28;20454;-75
2023/07/24 09:12:43;;;;;;;10.98;7.30;;;;;;;;;;5067747;28;20534;-74
2023/07/24 09:15:09;;;;;;;9.48;6.93;;;;;;;;;;5055938;28;20053;-74
2023/07/24 09:17:35;;;;;;;9.48;6.85;;;;;;;;;;5071157;28;20032;-75
2023/07/24 09:20:02;;;;;;;10.25;7.40;;;;;;;;;;5072935;28;20119;-75
2023/07/24 09:22:28;;;;;;;11.02;7.93;;;;;;;;;;5068361;28;20057;-75
2023/07/24 09:24:55;;;;;;;10.00;7.78;;;;;;;;;;5064536;28;20048;-75
2023/07/24 09:27:26;;;;;;;9.07;6.93;;;;;;;;;;5073009;28;20101;-74
2023/07/24 09:29:52;;;;;;;7.68;6.55;;;;;;;;;;5064324;28;20052;-75
2023/07/24 09:32:25;;;;;;;7.93;6.55;;;;;;;;;;5068426;28;20045;-75
2023/07/24 09:34:53;;;;;;;7.45;6.20;;;;;;;;;;5068343;28;20040;-75
2023/07/24 09:37:46;;;;;;;7.72;6.13;;;;;;;;;;5072557;28;20143;-75
2023/07/24 09:40:13;;;;;;;7.38;5.40;;;;;;;;;;5064772;28;20390;-75
2023/07/24 09:42:40;;;;;;;8.00;5.32;;;;;;;;;;5065607;28;20049;-75
2023/07/24 09:45:08;;;;;;;7.32;5.80;;;;;;;;;;5056947;28;20048;-75
2023/07/24 09:47:34;;;;;;;7.80;6.25;;;;;;;;;;5053151;28;20052;-75
2023/07/24 09:50:03;;;;;;;9.63;5.82;;;;;;;;;;5059246;28;20433;-75
2023/07/24 09:52:30;;;;;;;6.72;5.13;;;;;;;;;;5061586;28;20058;-75
2023/07/24 09:55:15;;;;;;;6.80;5.15;;;;;;;;;;5071458;28;20037;-74
2023/07/24 09:57:42;;;;;;;6.43;5.28;;;;;;;;;;5066456;28;20607;-75
2023/07/24 10:00:08;;;;;;;5.90;5.00;;;;;;;;;;5073378;28;20040;-78
2023/07/24 10:02:34;;;;;;;7.03;5.30;;;;;;;;;;5068089;28;20037;-75
2023/07/24 10:05:01;;;;;;;8.10;5.30;;;;;;;;;;5067263;28;20528;-75
2023/07/24 10:07:27;;;;;;;7.55;5.47;;;;;;;;;;5068954;28;20045;-74
2023/07/24 10:09:54;;;;;;;7.07;5.55;;;;;;;;;;5077327;28;20386;-75
2023/07/24 10:12:20;;;;;;;7.00;5.57;;;;;;;;;;5071398;28;20075;-75
2023/07/24 10:14:47;;;;;;;6.65;5.20;;;;;;;;;;5074619;28;20048;-75
2023/07/24 10:17:13;;;;;;;6.60;5.35;;;;;;;;;;5076005;28;20101;-75
2023/07/24 10:19:42;;;;;;;7.78;5.07;;;;;;;;;;5065858;28;20032;-75
2023/07/24 10:22:09;;;;;;;7.80;6.05;;;;;;;;;;5067624;28;20378;-75
2023/07/24 10:24:35;;;;;;;6.82;5.35;;;;;;;;;;5068491;28;20045;-75
2023/07/24 10:27:03;;;;;;;5.78;4.93;;;;;;;;;;5074672;28;20068;-75
2023/07/24 10:29:29;;;;;;;6.25;5.45;;;;;;;;;;5069330;28;20052;-75
2023/07/24 10:31:55;;;;;;;7.82;5.18;;;;;;;;;;5081770;28;20068;-74
2023/07/24 10:34:21;;;;;;;6.40;5.45;;;;;;;;;;5073050;28;20041;-75
2023/07/24 10:36:47;;;;;;;8.77;5.60;;;;;;;;;;5062416;28;20377;-76
2023/07/24 10:39:20;;;;;;;7.45;4.70;;;;;;;;;;5071775;28;20048;-79
2023/07/24 10:41:46;;;;;;;7.25;5.38;;;;;;;;;;5078424;28;20159;-77
2023/07/24 10:44:13;;;;;;;6.43;5.30;;;;;;;;;;5078640;28;20036;-77
2023/07/24 10:46:40;;;;;;;6.72;5.25;;;;;;;;;;5075453;28;20041;-75
2023/07/24 10:49:06;;;;;;;5.22;4.47;;;;;;;;;;5074690;28;20050;-76
2023/07/24 10:51:34;;;;;;;6.13;5.00;;;;;;;;;;5072340;28;20064;-75
2023/07/24 10:54:00;;;;;;;6.20;5.07;;;;;;;;;;5075322;28;20040;-75
2023/07/24 10:56:26;;;;;;;6.68;5.20;;;;;;;;;;5074331;28;20116;-75
2023/07/24 10:58:52;;;;;;;6.28;5.13;;;;;;;;;;5055525;28;20044;-75
2023/07/24 11:01:19;;;;;;;6.28;5.57;;;;;;;;;;5069554;28;20109;-75
2023/07/24 11:03:45;;;;;;;8.55;4.90;;;;;;;;;;5075187;28;20498;-75
2023/07/24 11:06:15;;;;;;;5.70;4.95;;;;;;;;;;5074199;28;20049;-75
2023/07/24 11:08:41;;;;;;;6.32;4.75;;;;;;;;;;5067888;28;20526;-75
2023/07/24 11:11:08;;;;;;;4.88;4.38;;;;;;;;;;5071172;28;20051;-75
2023/07/24 11:13:34;;;;;;;5.75;4.38;;;;;;;;;;5074903;28;20044;-76
2023/07/24 11:16:09;;;;;;;6.32;4.40;;;;;;;;;;5072876;28;20044;-76
2023/07/24 11:18:46;;;;;;;6.03;4.72;;;;;;;;;;5060019;28;20487;-75
2023/07/24 11:21:12;;;;;;;5.68;4.10;;;;;;;;;;5051286;28;20048;-76
2023/07/24 11:23:45;;;;;;;4.75;4.22;;;;;;;;;;5073312;28;20463;-76
2023/07/24 11:26:11;;;;;;;5.63;4.10;;;;;;;;;;5069578;28;20048;-76
2023/07/24 11:28:40;;;;;;;4.82;4.32;;;;;;;;;;5074691;28;20471;-76
2023/07/24 11:31:07;;;;;;;5.90;4.22;;;;;;;;;;5074936;28;20084;-76
2023/07/24 11:33:33;;;;;;;4.55;4.13;;;;;;;;;;5073624;28;20076;-76
2023/07/24 11:35:59;;;;;;;5.15;4.40;;;;;;;;;;5066239;28;20095;-75
2023/07/24 11:38:25;;;;;;;5.50;3.95;;;;;;;;;;5073829;28;20048;-76
2023/07/24 11:40:54;;;;;;;5.30;4.40;;;;;;;;;;5065510;28;20449;-76
2023/07/24 11:43:21;;;;;;;5.43;3.63;;;;;;;;;;5074555;28;20052;-76
2023/07/24 11:45:51;;;;;;;3.72;2.72;;;;;;;;;;5072041;28;20049;-75
2023/07/24 11:48:18;;;;;;;3.25;2.83;;;;;;;;;;5060523;28;20040;-76
2023/07/24 11:50:44;;;;;;;3.30;2.70;;;;;;;;;;5073990;28;20059;-76
2023/07/24 11:53:20;;;;;;;3.90;2.30;;;;;;;;;;5073770;28;20387;-75
2023/07/24 11:55:46;;;;;;;;;;;;;;;;;;5068794;28;20076;-76
2023/07/24 11:58:15;;;;;;;3.00;2.05;;;;;;;;;;5074380;28;19978;-76
2023/07/24 12:00:41;;;;;;;4.68;2.60;;;;;;;;;;5074271;28;20052;-76
2023/07/24 12:03:08;;;;;;;3.47;2.17;;;;;;;;;;5073961;28;20044;-76
2023/07/24 12:05:41;;;;;;;2.80;2.00;;;;;;;;;;5073243;28;20047;-76
2023/07/24 12:08:07;;;;;;;4.53;2.10;;;;;;;;;;5063504;28;20132;-76
2023/07/24 12:10:36;;;;;;;4.18;1.88;;;;;;;;;;5073859;28;20135;-76
2023/07/24 12:13:02;;;;;;;2.63;2.00;;;;;;;;;;5073463;28;20386;-76
2023/07/24 12:15:28;;;;;;;4.00;2.13;;;;;;;;;;5069191;28;20041;-76
2023/07/24 12:17:54;;;;;;;2.40;1.80;;;;;;;;;;5072637;28;20055;-76
2023/07/24 12:20:21;;;;;;;3.47;2.20;;;;;;;;;;5073890;28;20089;-76
2023/07/24 12:22:47;;;;;;;2.70;1.98;;;;;;;;;;5066311;28;20040;-76
2023/07/24 12:25:13;;;;;;;5.68;2.55;;;;;;;;;;5073265;28;20391;-76
2023/07/24 12:27:41;;;;;;;3.65;1.95;;;;;;;;;;5072291;28;20048;-76
2023/07/24 12:30:07;;;;;;;2.92;1.90;;;;;;;;;;5067540;28;20418;-77
2023/07/24 12:32:33;;;;;;;4.95;2.38;;;;;;;;;;5074487;28;20475;-78
2023/07/24 12:34:59;;;;;;;5.57;3.08;;;;;;;;;;5068945;28;20453;-74
2023/07/24 12:37:25;;;;;;;7.32;2.50;;;;;;;;;;5069527;28;20053;-76
2023/07/24 12:39:52;;;;;;;7.95;2.70;;;;;;;;;;5062014;28;20049;-75
2023/07/24 12:42:18;;;;;;;6.40;2.60;;;;;;;;;;5071988;28;20094;-75
2023/07/24 12:44:44;;;;;;;3.72;2.38;;;;;;;;;;5073407;28;20076;-75
2023/07/24 12:47:10;;;;;;;6.20;2.20;;;;;;;;;;5073400;28;20033;-75
2023/07/24 12:49:37;;;;;;;4.55;2.38;;;;;;;;;;5067551;28;20043;-75
2023/07/24 12:52:03;;;;;;;6.32;2.33;;;;;;;;;;5066956;28;20045;-75
2023/07/24 12:54:29;;;;;;;7.07;2.63;;;;;;;;;;5058206;28;20067;-75
2023/07/24 12:56:56;;;;;;;7.93;2.60;;;;;;;;;;5067227;28;20037;-75
2023/07/24 12:59:22;;;;;;;9.88;3.10;;;;;;;;;;5073081;28;20123;-75
2023/07/24 13:01:48;;;;;;;10.35;3.10;;;;;;;;;;5059802;28;20425;-77
2023/07/24 13:04:14;;;;;;;9.15;3.00;;;;;;;;;;5072008;28;20048;-77
2023/07/24 13:06:40;;;;;;;6.60;2.78;;;;;;;;;;5055489;28;20072;-77
2023/07/24 13:09:06;;;;;;;7.07;2.40;;;;;;;;;;5066843;28;20074;-77
2023/07/24 13:11:33;;;;;;;10.00;2.80;;;;;;;;;;5058392;28;20072;-77
2023/07/24 13:13:59;;;;;;;6.82;2.65;;;;;;;;;;5070163;28;20099;-77
2023/07/24 13:16:25;;;;;;;8.30;2.80;;;;;;;;;;5071856;28;20059;-76
2023/07/24 13:18:51;;;;;;;8.77;2.95;;;;;;;;;;5060484;28;20056;-76
2023/07/24 13:21:17;;;;;;;11.70;3.03;;;;;;;;;;5066639;28;20116;-76
2023/07/24 13:23:43;;;;;;;7.22;2.90;;;;;;;;;;5071634;28;20417;-76
2023/07/24 13:26:10;;;;;;;6.13;2.45;;;;;;;;;;5068448;28;20144;-76
2023/07/24 13:28:37;;;;;;;4.28;2.60;;;;;;;;;;5072618;28;20056;-76
2023/07/24 13:31:13;;;;;;;5.32;2.15;;;;;;;;;;5073296;28;20086;-79
2023/07/24 13:33:40;;;;;;;4.25;2.75;;;;;;;;;;5072125;28;20059;-75
2023/07/24 13:36:06;;;;;;;3.50;2.13;;;;;;;;;;5073322;28;20060;-75
2023/07/24 13:38:32;;;;;;;6.88;2.10;;;;;;;;;;5068473;28;20057;-75
2023/07/24 13:40:58;;;;;;;7.05;2.50;;;;;;;;;;5074533;28;20387;-76
2023/07/24 13:43:24;;;;;;;3.30;2.13;;;;;;;;;;5076014;28;20149;-75
2023/07/24 13:45:50;;;;;;;9.52;3.00;;;;;;;;;;5075471;28;20040;-77
2023/07/24 13:48:16;;;;;;;5.53;2.33;;;;;;;;;;5075003;28;20455;-75
2023/07/24 13:50:43;;;;;;;5.35;2.75;;;;;;;;;;5073381;28;20048;-75
2023/07/24 13:53:09;;;;;;;8.40;2.88;;;;;;;;;;5076451;28;20459;-75
2023/07/24 13:55:35;;;;;;;5.25;2.38;;;;;;;;;;5067117;28;20051;-75
2023/07/24 13:58:01;;;;;;;4.80;2.40;;;;;;;;;;5070455;28;20102;-75
2023/07/24 14:00:27;;;;;;;5.28;2.35;;;;;;;;;;5074679;28;20455;-75
2023/07/24 14:02:53;;;;;;;5.03;2.63;;;;;;;;;;5064525;28;20041;-75
2023/07/24 14:05:19;;;;;;;5.07;2.40;;;;;;;;;;5079582;28;20052;-75
2023/07/24 14:07:45;;;;;;;4.65;2.80;;;;;;;;;;5073734;28;20045;-76
2023/07/24 14:10:12;;;;;;;4.55;2.40;;;;;;;;;;5066349;28;20055;-73
2023/07/24 14:12:38;;;;;;;5.63;2.40;;;;;;;;;;5078262;28;20051;-78
2023/07/24 14:15:04;;;;;;;5.70;2.60;;;;;;;;;;5078964;28;20048;-75
2023/07/24 14:17:30;;;;;;;5.60;2.40;;;;;;;;;;5068313;28;20479;-75
2023/07/24 14:19:56;;;;;;;3.75;2.30;;;;;;;;;;5069880;28;20390;-75
2023/07/24 14:22:22;;;;;;;3.03;2.20;;;;;;;;;;5074753;28;20040;-75
2023/07/24 14:24:48;;;;;;;4.78;2.63;;;;;;;;;;5067461;28;20123;-75
2023/07/24 14:27:14;;;;;;;4.18;2.10;;;;;;;;;;5061354;28;20095;-76
2023/07/24 14:29:41;;;;;;;7.55;2.40;;;;;;;;;;5073398;28;20048;-76
2023/07/24 14:32:07;;;;;;;3.88;2.33;;;;;;;;;;5074586;28;20048;-76